Latest Weather Observations for Maningrida Airport

IDD60801

Issued at 7:01 am CST Wednesday 29 March 2017 (issued every 30 minutes, with the page automatically refreshed every 10 minutes)

About weather observations | Map of weather stations | Latest weather observations for NT | Other Formats
Station Details ID: 014405 Name: MANINGRIDA AIRPORT Lat: -12.06 Lon: 134.23 Height: 28.1 m
Data from the previous 72 hours. | See also: Recent months at Maningrida Airport
Date/Time
CST
Temp
°C
App
Temp
°C
Dew
Point
°C
Rel
Hum
%
Delta-T
°C
Wind Press
QNH
hPa
Press
MSL
hPa
Rain since
9am
mm
Dir  Spd
km/h
Gust
km/h
Spd
kts
Gust
kts
29/07:00am 28.2 33.6 26.6 91 1.1 W 11 20 6 11 1007.0 1006.8 0.2
29/06:30am 28.3 33.4 26.7 91 1.1 W 13 22 7 12 1006.6 1006.4 0.2
29/06:00am 28.3 34.2 26.7 91 1.1 W 9 19 5 10 1006.5 1006.3 0.2
29/05:30am 28.3 33.8 26.7 91 1.1 W 11 17 6 9 1006.2 1006.0 0.2
29/05:00am 28.2 34.0 26.6 91 1.1 W 9 15 5 8 1006.1 1005.9 0.2
29/04:30am 28.2 33.2 26.6 91 1.1 W 13 19 7 10 1006.0 1005.8 0.2
29/04:00am 28.3 33.8 26.7 91 1.1 WNW 11 17 6 9 1006.2 1006.0 0.2
29/03:30am 28.3 33.8 26.7 91 1.1 WNW 11 17 6 9 1006.4 1006.2 0.2
29/03:04am 28.2 33.9 26.4 90 1.3 WNW 9 17 5 9 1006.4 1006.2 0.2
29/03:00am 28.2 34.2 26.4 90 1.3 WNW 7 13 4 7 1006.4 1006.2 0.2
29/02:30am 28.3 33.4 26.1 88 1.6 WNW 11 17 6 9 1006.4 1006.2 0.2
29/02:00am 28.5 34.0 26.1 87 1.7 WNW 9 15 5 8 1006.7 1006.5 0.2
29/01:30am 28.4 33.9 25.6 85 2.0 WNW 7 13 4 7 1006.8 1006.6 0.2
29/01:00am 28.2 33.5 25.0 83 2.2 WNW 6 9 3 5 1006.9 1006.7 0.2
29/12:30am 28.3 33.3 24.5 80 2.6 W 6 9 3 5 1007.2 1007.0 0.2
29/12:00am 28.4 33.3 24.4 79 2.8 WNW 6 9 3 5 1007.4 1007.2 0.2
 
Date/Time
CST
Temp
°C
App
Temp
°C
Dew
Point
°C
Rel
Hum
%
Delta-T
°C
Wind Press
QNH
hPa
Press
MSL
hPa
Rain since
9am
mm
Dir  Spd
km/h
Gust
km/h
Spd
kts
Gust
kts
28/11:30pm 27.9 34.4 25.1 85 2.0 CALM 0 0 0 0 1007.7 1007.5 0.2
28/11:00pm 28.0 34.2 24.6 82 2.4 CALM 0 0 0 0 1007.7 1007.5 0.2
28/10:30pm 28.0 34.1 24.4 81 2.5 CALM 0 0 0 0 1007.6 1007.4 0.2
28/10:00pm 28.4 34.4 24.2 78 2.9 CALM 0 0 0 0 1007.4 1007.2 0.2
28/09:30pm 28.6 32.9 23.3 73 3.6 SW 6 9 3 5 1007.1 1006.9 0.2
28/09:00pm 29.1 33.8 24.0 74 3.5 SSE 6 9 3 5 1006.9 1006.7 0.2
28/08:30pm 29.5 34.0 23.7 71 4.0 WSW 6 9 3 5 1006.8 1006.6 0.2
28/08:00pm 29.1 33.9 24.2 75 3.4 SE 6 11 3 6 1007.0 1006.8 0.2
28/07:30pm 29.4 33.9 23.6 71 4.0 ESE 6 7 3 4 1006.4 1006.2 0.2
28/07:00pm 30.2 33.7 22.9 65 5.0 ENE 9 15 5 8 1005.8 1005.6 0.2
28/06:30pm 32.1 39.0 25.7 69 4.6 CALM 0 6 0 3 1005.6 1005.4 0.2
28/06:00pm 32.6 37.2 24.1 61 6.0 WNW 7 11 4 6 1004.7 1004.5 0.2
28/05:30pm 33.2 37.8 24.1 59 6.4 W 7 13 4 7 1004.7 1004.5 0.2
28/05:00pm 33.8 37.8 23.8 56 7.0 W 9 17 5 9 1004.8 1004.6 0.2
28/04:30pm 34.2 38.3 23.9 55 7.2 W 9 19 5 10 1004.7 1004.5 0.2
28/04:00pm 34.1 37.4 23.8 55 7.2 W 13 20 7 11 1004.9 1004.7 0.2
28/03:30pm 34.4 38.2 23.4 52 7.7 WSW 9 15 5 8 1005.0 1004.8 0.2
28/03:00pm 34.3 36.4 22.4 50 8.2 SW 15 20 8 11 1005.4 1005.2 0.2
28/02:30pm 34.3 37.8 23.6 53 7.5 SW 11 19 6 10 1005.8 1005.6 0.2
28/02:00pm 33.8 36.3 23.2 54 7.3 SW 15 22 8 12 1006.1 1005.9 0.2
28/01:30pm 33.2 35.9 22.9 54 7.1 SW 13 22 7 12 1006.5 1006.3 0.2
28/01:00pm 32.9 36.0 23.5 57 6.5 WSW 13 22 7 12 1007.1 1006.9 0.2
28/12:30pm 33.0 36.7 24.5 61 6.0 SW 13 24 7 13 1007.6 1007.4 0.2
28/12:00pm 32.4 35.7 23.9 61 5.9 WSW 13 22 7 12 1008.0 1007.8 0.2
28/11:30am 32.5 35.9 24.0 61 5.9 WSW 13 26 7 14 1008.2 1008.0 0.2
28/11:00am 31.7 34.4 23.5 62 5.7 WSW 15 28 8 15 1008.6 1008.4 0.2
28/10:30am 31.2 33.1 22.8 61 5.8 W 17 32 9 17 1008.8 1008.6 0.2
28/10:00am 30.7 33.2 23.1 64 5.2 W 15 28 8 15 1009.0 1008.8 0.2
28/09:30am 30.0 33.9 24.9 74 3.6 W 13 22 7 12 1009.2 1009.0 0.2
28/09:00am 29.0 33.6 25.4 81 2.5 W 11 17 6 9 1009.3 1009.1 6.6
28/08:47am 28.7 33.1 25.1 81 2.5 W 11 19 6 10 1009.3 1009.1 6.6
28/08:30am 28.4 33.4 25.4 84 2.1 WNW 9 17 5 9 1009.3 1009.1 6.6
28/08:00am 27.4 31.9 25.2 88 1.5 WNW 11 17 6 9 1009.1 1008.9 6.6
28/07:30am 26.6 31.1 25.2 92 1.0 WSW 11 17 6 9 1008.7 1008.5 6.6
28/07:00am 26.4 31.3 25.2 93 0.8 W 9 17 5 9 1008.5 1008.3 6.6
28/06:30am 26.4 31.3 25.2 93 0.8 WNW 9 17 5 9 1008.4 1008.2 6.6
28/06:00am 26.5 31.9 25.5 94 0.7 WNW 7 11 4 6 1008.2 1008.0 6.6
28/05:53am 26.4 31.4 25.4 94 0.7 WNW 9 15 5 8 1008.2 1008.0 6.6
28/05:30am 26.4 31.4 25.4 94 0.7 W 9 13 5 7 1007.9 1007.7 6.6
28/05:00am 26.5 31.6 25.5 94 0.7 W 9 15 5 8 1007.5 1007.3 6.6
28/04:30am 26.5 31.4 25.3 93 0.8 W 9 15 5 8 1007.5 1007.3 6.6
28/04:00am 26.4 31.3 25.2 93 0.8 W 9 15 5 8 1007.4 1007.2 6.6
28/03:30am 26.3 31.4 24.9 92 1.0 WSW 7 13 4 7 1007.4 1007.2 6.6
28/03:00am 26.4 31.1 25.0 92 1.0 WSW 9 11 5 6 1007.6 1007.4 6.6
28/02:30am 26.5 31.8 24.9 91 1.1 WSW 6 9 3 5 1007.6 1007.4 6.6
28/02:00am 26.6 31.8 24.8 90 1.3 WSW 6 13 3 7 1008.1 1007.9 6.6
28/01:30am 26.8 31.7 24.6 88 1.5 WNW 7 13 4 7 1008.4 1008.2 6.6
28/01:00am 26.9 31.1 24.7 88 1.5 NW 11 17 6 9 1008.6 1008.4 6.6
28/12:30am 26.5 30.8 24.2 87 1.6 NW 9 13 5 7 1009.0 1008.8 6.6
28/12:00am 26.4 33.0 25.2 93 0.8 CALM 0 0 0 0 1009.2 1009.0 6.6
 
Date/Time
CST
Temp
°C
App
Temp
°C
Dew
Point
°C
Rel
Hum
%
Delta-T
°C
Wind Press
QNH
hPa
Press
MSL
hPa
Rain since
9am
mm
Dir  Spd
km/h
Gust
km/h
Spd
kts
Gust
kts
27/11:30pm 26.1 30.3 24.7 92 1.0 ENE 11 15 6 8 1009.4 1009.2 6.6
27/11:00pm 26.1 31.2 24.7 92 1.0 SW 6 11 3 6 1009.0 1008.8 6.6
27/10:30pm 25.9 30.5 24.7 93 0.8 SW 9 17 5 9 1008.9 1008.7 6.6
27/10:00pm 26.0 30.4 25.1 95 0.6 SW 11 17 6 9 1009.2 1009.0 6.6
27/09:30pm 26.2 32.6 25.5 96 0.5 SE 2 9 1 5 1009.6 1009.4 6.6
27/09:00pm 26.2 30.4 25.3 95 0.6 E 13 19 7 10 1009.7 1009.5 6.6
27/08:30pm 26.3 32.2 25.4 95 0.6 SW 4 7 2 4 1008.6 1008.4 6.6
27/08:00pm 26.3 32.2 25.3 94 0.7 WSW 4 9 2 5 1008.6 1008.4 6.6
27/07:30pm 26.5 31.6 25.5 94 0.7 NW 9 17 5 9 1008.4 1008.2 6.6
27/07:00pm 25.9 31.0 24.9 94 0.7 WSW 7 11 4 6 1008.1 1007.9 6.6
27/06:43pm 26.1 31.5 25.2 95 0.6 S 6 9 3 5 1008.6 1008.4 6.6
27/06:30pm 26.2 31.1 25.2 94 0.7 SSE 9 15 5 8 1008.7 1008.5 6.2
27/06:16pm 26.6 31.2 25.4 93 0.8 S 11 19 6 10 1009.2 1009.0 4.4
27/06:00pm 27.2 32.6 25.4 90 1.3 SSE 7 15 4 8 1008.4 1008.2 3.2
27/05:30pm 27.4 32.4 25.4 89 1.4 WSW 9 13 5 7 1007.3 1007.1 2.4
27/05:28pm 27.3 32.5 25.1 88 1.5 W 7 13 4 7 1007.2 1007.0 2.4
27/05:03pm 28.4 33.3 25.2 83 2.2 W 9 22 5 12 1007.2 1007.0 0.8
27/05:00pm 28.6 33.2 25.4 83 2.3 WNW 11 24 6 13 1007.1 1006.9 0.6
27/04:30pm 30.1 31.6 24.9 73 3.7 NW 26 41 14 22 1006.0 1005.8 0.0
27/04:00pm 30.9 31.6 25.5 73 3.8 NNW 32 43 17 23 1006.6 1006.4 0.0
27/03:30pm 31.2 32.7 26.2 75 3.6 NNW 30 39 16 21 1006.1 1005.9 0.0
27/03:00pm 31.9 34.9 26.2 72 4.1 NNW 22 32 12 17 1006.9 1006.7 0.0
27/02:30pm 32.0 35.7 26.3 72 4.1 N 19 24 10 13 1007.3 1007.1 0.0
27/02:00pm 33.0 38.0 26.5 68 4.7 N 13 19 7 10 1007.5 1007.3 0.0
27/01:30pm 32.1 35.8 25.7 69 4.6 N 17 22 9 12 1007.9 1007.7 0.0
27/01:00pm 33.3 36.8 24.2 59 6.4 W 13 20 7 11 1008.2 1008.0 0.0
27/12:30pm 33.5 37.1 24.4 59 6.4 W 13 22 7 12 1008.5 1008.3 0.0
27/12:00pm 32.7 36.4 24.5 62 5.8 WNW 13 19 7 10 1008.9 1008.7 0.0
27/11:30am 32.5 36.6 24.5 62 5.6 W 11 17 6 9 1009.5 1009.3 0.0
27/11:00am 31.9 35.8 24.2 63 5.4 W 11 19 6 10 1010.0 1009.8 0.0
27/10:30am 31.3 34.5 24.4 66 4.8 NW 15 20 8 11 1010.3 1010.1 0.0
27/10:00am 30.9 33.7 24.3 68 4.6 WNW 17 24 9 13 1010.5 1010.3 0.0
27/09:30am 30.1 33.8 24.5 72 3.9 WNW 13 22 7 12 1010.8 1010.6 0.0
27/09:00am 29.6 33.4 24.0 72 3.9 WNW 11 20 6 11 1011.0 1010.8 0.0
27/08:30am 28.8 32.4 23.7 74 3.5 W 11 19 6 10 1010.8 1010.6 0.0
27/08:00am 28.0 32.1 24.6 82 2.4 WNW 11 17 6 9 1010.5 1010.3 0.0
27/07:30am 27.2 31.8 24.7 86 1.7 WNW 9 13 5 7 1010.2 1010.0 0.0
27/07:00am 26.7 31.3 24.7 89 1.4 WNW 9 15 5 8 1009.7 1009.5 0.0
27/06:30am 26.5 30.9 24.5 89 1.4 W 9 15 5 8 1009.5 1009.3 0.0
27/06:00am 26.6 31.1 24.6 89 1.4 W 9 13 5 7 1009.7 1009.5 0.0
27/05:30am 26.6 31.5 24.6 89 1.4 W 7 15 4 8 1009.6 1009.4 0.0
27/05:00am 26.7 31.3 24.7 89 1.4 W 9 17 5 9 1009.5 1009.3 0.0
27/04:30am 26.6 31.7 24.6 89 1.4 WSW 6 9 3 5 1009.5 1009.3 0.0
27/04:00am 26.7 31.5 24.5 88 1.5 W 7 13 4 7 1009.3 1009.1 0.0
27/03:30am 26.8 31.2 24.5 87 1.6 W 9 15 5 8 1009.3 1009.1 0.0
27/03:00am 26.9 31.7 24.4 86 1.7 W 7 13 4 7 1009.3 1009.1 0.0
27/02:30am 27.0 32.6 24.8 88 1.5 WSW 4 7 2 4 1009.7 1009.5 0.0
27/02:00am 27.3 32.2 24.7 86 1.8 WSW 7 11 4 6 1010.0 1009.8 0.0
27/01:30am 27.6 32.5 24.6 84 2.1 WNW 7 13 4 7 1010.2 1010.0 0.0
27/01:00am 27.6 32.7 24.6 84 2.1 WNW 6 9 3 5 1010.6 1010.4 0.0
27/12:30am 27.7 32.5 24.5 83 2.2 WNW 7 13 4 7 1010.8 1010.6 0.0
27/12:00am 27.5 32.4 24.6 84 2.0 W 7 15 4 8 1010.8 1010.6 0.0
 
Date/Time
CST
Temp
°C
App
Temp
°C
Dew
Point
°C
Rel
Hum
%
Delta-T
°C
Wind Press
QNH
hPa
Press
MSL
hPa
Rain since
9am
mm
Dir  Spd
km/h
Gust
km/h
Spd
kts
Gust
kts
26/11:30pm 27.8 33.5 25.0 85 2.0 NW 4 7 2 4 1010.8 1010.6 0.0
26/11:00pm 28.2 32.7 24.6 81 2.5 WNW 9 15 5 8 1010.7 1010.5 0.0
26/10:30pm 28.3 33.1 24.5 80 2.6 WNW 7 15 4 8 1010.6 1010.4 0.0
26/10:00pm 28.4 32.8 24.4 79 2.8 WNW 9 17 5 9 1010.7 1010.5 0.0
26/09:30pm 28.7 33.0 24.9 80 2.7 NW 11 17 6 9 1010.5 1010.3 0.0
26/09:00pm 28.8 32.4 25.0 80 2.7 NW 15 20 8 11 1010.0 1009.8 0.0
26/08:30pm 28.9 32.1 24.9 79 2.8 NW 17 26 9 14 1009.5 1009.3 0.0
26/08:00pm 28.9 32.6 25.1 80 2.7 NW 15 24 8 13 1008.9 1008.7 0.0
26/07:30pm 28.8 30.7 24.4 77 3.1 NNW 22 28 12 15 1008.8 1008.6 0.0
26/07:00pm 29.0 31.7 25.6 82 2.4 NNW 22 28 12 15 1008.3 1008.1 0.0
26/06:30pm 29.6 31.8 24.2 73 3.8 NNW 20 26 11 14 1007.8 1007.6 0.0
26/06:00pm 30.0 31.5 24.4 72 3.9 NNW 24 30 13 16 1007.6 1007.4 0.0
26/05:30pm 30.3 32.8 24.7 72 3.9 N 20 26 11 14 1007.4 1007.2 0.0
26/05:00pm 30.3 32.9 24.9 73 3.8 N 20 28 11 15 1006.9 1006.7 0.0
26/04:30pm 30.8 33.4 24.9 71 4.2 N 20 28 11 15 1006.8 1006.6 0.0
26/04:00pm 31.0 33.3 24.4 68 4.6 N 20 28 11 15 1006.7 1006.5 0.0
26/03:30pm 31.5 34.1 24.9 68 4.7 N 20 28 11 15 1006.7 1006.5 0.0
26/03:00pm 31.1 33.0 25.0 70 4.3 N 24 30 13 16 1006.8 1006.6 0.0
26/02:30pm 31.2 33.4 24.8 69 4.5 NNW 22 30 12 16 1007.1 1006.9 0.0
26/02:00pm 31.2 32.8 25.1 70 4.3 N 26 33 14 18 1007.4 1007.2 0.0
26/01:30pm 31.4 32.4 24.8 68 4.6 NNW 28 35 15 19 1007.7 1007.5 0.0
26/01:00pm 32.3 33.5 25.1 65 5.1 NNW 28 37 15 20 1008.2 1008.0 0.0
26/12:30pm 32.0 32.7 24.3 63 5.4 N 28 35 15 19 1008.8 1008.6 0.0
26/12:00pm 32.3 35.0 25.6 67 4.8 NNW 22 30 12 16 1009.2 1009.0 0.0
26/11:30am 31.4 33.7 24.5 67 4.8 NNW 20 26 11 14 1009.7 1009.5 0.0
26/11:00am 31.0 33.6 24.9 70 4.3 NNW 20 30 11 16 1010.0 1009.8 0.0
26/10:30am 30.7 33.8 24.8 71 4.1 NW 17 26 9 14 1010.1 1009.9 0.0
26/10:00am 30.3 34.3 25.6 76 3.3 NW 15 19 8 10 1010.3 1010.1 0.0
26/09:30am 29.9 33.3 25.2 76 3.3 NNW 17 22 9 12 1010.3 1010.1 0.0
26/09:00am 30.1 34.8 24.9 73 3.7 WNW 9 15 5 8 1010.2 1010.0 0.0
26/08:30am 29.5 34.4 25.3 78 3.0 WNW 9 17 5 9 1009.8 1009.6 0.0
26/08:00am 28.1 33.5 25.1 84 2.1 W 6 13 3 7 1009.7 1009.5 0.0
26/07:30am 26.8 33.6 25.6 93 0.8 CALM 0 0 0 0 1009.3 1009.1 0.0

Other Formats:

Comma delimited format used in spreadsheet applications
http://www.bom.gov.au/fwo/IDD60801/IDD60801.95142.axf

JavaScript Object Notation format (JSON) in row-major order
http://www.bom.gov.au/fwo/IDD60801/IDD60801.95142.json